Terminal Aerodrome Forecast
Issued by NWS Paducah, KY

Home | Current Version | Previous Version | Text Only | Print | Product List | Glossary On
Versions: 1 2 3 4 5 6 7 8 9 10 11 12 13 14 15 16 17 18 19 20 21 22 23 24
877
FTUS43 KPAH 042105 AAB
TAFPAH
TAF AMD
KPAH 042105Z 0421/0518 28007KT 6SM BR OVC009
     FM050000 VRB03KT 6SM BR OVC015
     FM050900 06002KT 1/2SM FG VV009
     FM051400 07006KT 4SM BR BKN030=

USA.gov is the U.S. government's official web portal to all federal, state and local government web resources and services.